Eielson Air Force Base Fairbanks US
ICAO: PAEI
IATA:
Category: Medium
Scheduled Services:

Elevation: 547 ft
TransAlt. 18000 ft.

Airport Communications:
FAIRBANKS APP:125.35
ASOS:118.525
ATIS:27.35
CLNC DEL:34.37
FAIRBANKS DEP:126.5
GND:121.8
RANGE CON:125.3
SOURDOUGH:139.6
IGLOO:25.95
PMSV METRO:34.66
CHENA CON:23.81
PTD:37.22
TWR:127.2

PAEI Zoom In..

If Map Doesn't Load, Click Here

Runways:

(A) RW 14 length 14530 ft width 150 ft
ILS 110.50 / hdg 136

(B) RW 32 length 14530 ft width 150 ft
ILS 109.90 / hdg 316

Location; PAEI
Day. 26 / Time. 09.56 Zulu
* Altimeter: 30.23
* Temperature: 06° c. 42.8°f.
* Wind from: 000° Speed 00 kn.
Dewpoint: 03° c.
Visibility: 10 Statute Miles.
Clouds: Broken 3900 ft.
Clouds: Overcast 4900 ft.

PAEI 260956Z AUTO 00000KT 10SM BKN039 OVC049 06/03 A3023 RMK AO2 SLP243 T00580033 VISNO RWY32 $


Wind - Calm.

 
 
jpsmedia.com for Web Design worldairports.se 2018   terms of use